sensor_id;sensor_type;location;lat;lon;timestamp;pressure;altitude;pressure_sealevel;temperature
15709;BMP180;7954;51.914;8.420;2023-04-03T00:01:12;101748.31;;;11.18
15709;BMP180;7954;51.914;8.420;2023-04-03T00:03:40;101752.13;;;11.16
15709;BMP180;7954;51.914;8.420;2023-04-03T00:06:10;101754.66;;;11.16
15709;BMP180;7954;51.914;8.420;2023-04-03T00:08:38;101752.97;;;11.07
15709;BMP180;7954;51.914;8.420;2023-04-03T00:11:08;101760.66;;;11.03
15709;BMP180;7954;51.914;8.420;2023-04-03T00:13:37;101753.19;;;10.99
15709;BMP180;7954;51.914;8.420;2023-04-03T00:16:07;101750.75;;;10.95
15709;BMP180;7954;51.914;8.420;2023-04-03T00:18:38;101760.66;;;10.90
15709;BMP180;7954;51.914;8.420;2023-04-03T00:21:07;101754.69;;;10.89
15709;BMP180;7954;51.914;8.420;2023-04-03T00:23:37;101761.75;;;10.83
15709;BMP180;7954;51.914;8.420;2023-04-03T00:26:05;101759.81;;;10.72
15709;BMP180;7954;51.914;8.420;2023-04-03T00:28:34;101761.56;;;10.64
15709;BMP180;7954;51.914;8.420;2023-04-03T00:31:03;101766.06;;;10.61
15709;BMP180;7954;51.914;8.420;2023-04-03T00:33:32;101763.31;;;10.55
15709;BMP180;7954;51.914;8.420;2023-04-03T00:36:05;101768.00;;;10.58
15709;BMP180;7954;51.914;8.420;2023-04-03T00:38:33;101783.22;;;10.54
15709;BMP180;7954;51.914;8.420;2023-04-03T00:41:02;101780.16;;;10.51
15709;BMP180;7954;51.914;8.420;2023-04-03T00:43:30;101783.88;;;10.53
15709;BMP180;7954;51.914;8.420;2023-04-03T00:45:58;101769.38;;;10.52
15709;BMP180;7954;51.914;8.420;2023-04-03T00:48:29;101784.69;;;10.44
15709;BMP180;7954;51.914;8.420;2023-04-03T00:51:00;101781.63;;;10.41
15709;BMP180;7954;51.914;8.420;2023-04-03T00:53:31;101786.78;;;10.33
15709;BMP180;7954;51.914;8.420;2023-04-03T00:56:01;101784.00;;;10.31
15709;BMP180;7954;51.914;8.420;2023-04-03T00:58:33;101792.13;;;10.34
15709;BMP180;7954;51.914;8.420;2023-04-03T01:01:05;101789.31;;;10.33
15709;BMP180;7954;51.914;8.420;2023-04-03T01:03:34;101790.56;;;10.35
15709;BMP180;7954;51.914;8.420;2023-04-03T01:06:04;101785.28;;;10.29
15709;BMP180;7954;51.914;8.420;2023-04-03T01:08:32;101795.09;;;10.28
15709;BMP180;7954;51.914;8.420;2023-04-03T01:11:01;101790.13;;;10.24
15709;BMP180;7954;51.914;8.420;2023-04-03T01:13:32;101794.63;;;10.21
15709;BMP180;7954;51.914;8.420;2023-04-03T01:16:01;101787.78;;;10.16
15709;BMP180;7954;51.914;8.420;2023-04-03T01:18:30;101785.94;;;10.11
15709;BMP180;7954;51.914;8.420;2023-04-03T01:21:26;101791.66;;;10.10
15709;BMP180;7954;51.914;8.420;2023-04-03T01:24:22;101796.84;;;10.02
15709;BMP180;7954;51.914;8.420;2023-04-03T01:26:52;101789.06;;;9.97
15709;BMP180;7954;51.914;8.420;2023-04-03T01:29:21;101793.91;;;9.87
15709;BMP180;7954;51.914;8.420;2023-04-03T01:31:53;101797.25;;;9.78
15709;BMP180;7954;51.914;8.420;2023-04-03T01:34:21;101802.34;;;9.74
15709;BMP180;7954;51.914;8.420;2023-04-03T01:36:50;101801.81;;;9.67
15709;BMP180;7954;51.914;8.420;2023-04-03T01:39:19;101800.31;;;9.64
15709;BMP180;7954;51.914;8.420;2023-04-03T01:41:48;101806.72;;;9.58
15709;BMP180;7954;51.914;8.420;2023-04-03T01:44:15;101801.72;;;9.54
15709;BMP180;7954;51.914;8.420;2023-04-03T01:46:43;101806.63;;;9.45
15709;BMP180;7954;51.914;8.420;2023-04-03T01:49:12;101804.81;;;9.40
15709;BMP180;7954;51.914;8.420;2023-04-03T01:51:40;101808.69;;;9.34
15709;BMP180;7954;51.914;8.420;2023-04-03T01:54:43;101807.78;;;9.29
15709;BMP180;7954;51.914;8.420;2023-04-03T01:57:11;101803.78;;;9.26
15709;BMP180;7954;51.914;8.420;2023-04-03T01:59:40;101801.34;;;9.18
15709;BMP180;7954;51.914;8.420;2023-04-03T02:02:08;101805.47;;;9.17
15709;BMP180;7954;51.914;8.420;2023-04-03T02:04:36;101806.81;;;9.11
15709;BMP180;7954;51.914;8.420;2023-04-03T02:07:03;101807.50;;;9.06
15709;BMP180;7954;51.914;8.420;2023-04-03T02:09:31;101804.06;;;9.06
15709;BMP180;7954;51.914;8.420;2023-04-03T02:12:01;101807.84;;;9.04
15709;BMP180;7954;51.914;8.420;2023-04-03T02:14:28;101812.34;;;8.97
15709;BMP180;7954;51.914;8.420;2023-04-03T02:16:57;101802.28;;;8.97
15709;BMP180;7954;51.914;8.420;2023-04-03T02:19:24;101801.75;;;8.90
15709;BMP180;7954;51.914;8.420;2023-04-03T02:21:52;101813.03;;;8.92
15709;BMP180;7954;51.914;8.420;2023-04-03T02:24:20;101813.44;;;8.86
15709;BMP180;7954;51.914;8.420;2023-04-03T02:26:48;101815.34;;;8.87
15709;BMP180;7954;51.914;8.420;2023-04-03T02:29:17;101807.84;;;8.83
15709;BMP180;7954;51.914;8.420;2023-04-03T02:31:46;101810.44;;;8.75
15709;BMP180;7954;51.914;8.420;2023-04-03T02:34:14;101804.53;;;8.70
15709;BMP180;7954;51.914;8.420;2023-04-03T02:36:42;101810.84;;;8.68
15709;BMP180;7954;51.914;8.420;2023-04-03T02:39:10;101808.97;;;8.67
15709;BMP180;7954;51.914;8.420;2023-04-03T02:41:38;101804.94;;;8.64
15709;BMP180;7954;51.914;8.420;2023-04-03T02:44:06;101808.72;;;8.62
15709;BMP180;7954;51.914;8.420;2023-04-03T02:46:37;101806.84;;;8.61
15709;BMP180;7954;51.914;8.420;2023-04-03T02:49:06;101810.00;;;8.60
15709;BMP180;7954;51.914;8.420;2023-04-03T02:51:34;101817.25;;;8.58
15709;BMP180;7954;51.914;8.420;2023-04-03T02:54:02;101807.19;;;8.58
15709;BMP180;7954;51.914;8.420;2023-04-03T02:56:32;101812.91;;;8.53
15709;BMP180;7954;51.914;8.420;2023-04-03T02:59:00;101813.25;;;8.51
15709;BMP180;7954;51.914;8.420;2023-04-03T03:01:28;101809.19;;;8.51
15709;BMP180;7954;51.914;8.420;2023-04-03T03:04:00;101813.59;;;8.48
15709;BMP180;7954;51.914;8.420;2023-04-03T03:06:28;101809.94;;;8.38
15709;BMP180;7954;51.914;8.420;2023-04-03T03:08:56;101816.63;;;8.34
15709;BMP180;7954;51.914;8.420;2023-04-03T03:11:24;101805.25;;;8.36
15709;BMP180;7954;51.914;8.420;2023-04-03T03:13:52;101815.41;;;8.28
15709;BMP180;7954;51.914;8.420;2023-04-03T03:16:21;101816.38;;;8.25
15709;BMP180;7954;51.914;8.420;2023-04-03T03:18:49;101821.47;;;8.21
15709;BMP180;7954;51.914;8.420;2023-04-03T03:21:19;101816.16;;;8.15
15709;BMP180;7954;51.914;8.420;2023-04-03T03:23:47;101819.66;;;8.12
15709;BMP180;7954;51.914;8.420;2023-04-03T03:26:15;101813.13;;;8.04
15709;BMP180;7954;51.914;8.420;2023-04-03T03:28:44;101816.56;;;8.05
15709;BMP180;7954;51.914;8.420;2023-04-03T03:32:15;101830.44;;;7.99
15709;BMP180;7954;51.914;8.420;2023-04-03T03:34:43;101824.81;;;7.96
15709;BMP180;7954;51.914;8.420;2023-04-03T03:37:11;101824.81;;;7.96
15709;BMP180;7954;51.914;8.420;2023-04-03T03:39:39;101832.31;;;8.00
15709;BMP180;7954;51.914;8.420;2023-04-03T03:44:43;101836.22;;;7.86
15709;BMP180;7954;51.914;8.420;2023-04-03T03:47:12;101839.97;;;7.88
15709;BMP180;7954;51.914;8.420;2023-04-03T03:49:40;101841.25;;;7.86
15709;BMP180;7954;51.914;8.420;2023-04-03T03:52:08;101829.31;;;7.85
15709;BMP180;7954;51.914;8.420;2023-04-03T03:54:37;101836.56;;;7.83
15709;BMP180;7954;51.914;8.420;2023-04-03T03:57:06;101840.00;;;7.84
15709;BMP180;7954;51.914;8.420;2023-04-03T03:59:34;101841.28;;;7.78
15709;BMP180;7954;51.914;8.420;2023-04-03T04:02:05;101845.72;;;7.75
15709;BMP180;7954;51.914;8.420;2023-04-03T04:04:33;101845.09;;;7.76
15709;BMP180;7954;51.914;8.420;2023-04-03T04:07:01;101844.47;;;7.77
15709;BMP180;7954;51.914;8.420;2023-04-03T04:09:33;101853.66;;;7.68
15709;BMP180;7954;51.914;8.420;2023-04-03T04:12:01;101853.31;;;7.71
15709;BMP180;7954;51.914;8.420;2023-04-03T04:14:30;101849.53;;;7.69
15709;BMP180;7954;51.914;8.420;2023-04-03T04:16:58;101853.59;;;7.72
15709;BMP180;7954;51.914;8.420;2023-04-03T04:19:28;101861.53;;;7.66
15709;BMP180;7954;51.914;8.420;2023-04-03T04:21:55;101869.41;;;7.64
15709;BMP180;7954;51.914;8.420;2023-04-03T04:24:24;101874.13;;;7.58
15709;BMP180;7954;51.914;8.420;2023-04-03T04:26:51;101874.16;;;7.54
15709;BMP180;7954;51.914;8.420;2023-04-03T04:29:19;101866.91;;;7.56
15709;BMP180;7954;51.914;8.420;2023-04-03T04:31:47;101875.41;;;7.56
15709;BMP180;7954;51.914;8.420;2023-04-03T04:34:15;101877.97;;;7.48
15709;BMP180;7954;51.914;8.420;2023-04-03T04:36:46;101875.50;;;7.40
15709;BMP180;7954;51.914;8.420;2023-04-03T04:39:14;101870.44;;;7.44
15709;BMP180;7954;51.914;8.420;2023-04-03T04:41:42;101872.03;;;7.44
15709;BMP180;7954;51.914;8.420;2023-04-03T04:44:09;101880.19;;;7.43
15709;BMP180;7954;51.914;8.420;2023-04-03T04:46:37;101881.13;;;7.43
15709;BMP180;7954;51.914;8.420;2023-04-03T04:49:05;101884.00;;;7.37
15709;BMP180;7954;51.914;8.420;2023-04-03T04:51:34;101883.41;;;7.34
15709;BMP180;7954;51.914;8.420;2023-04-03T04:54:18;101884.34;;;7.34
15709;BMP180;7954;51.914;8.420;2023-04-03T04:56:46;101884.06;;;7.29
15709;BMP180;7954;51.914;8.420;2023-04-03T04:59:14;101890.00;;;7.29
15709;BMP180;7954;51.914;8.420;2023-04-03T05:01:43;101889.97;;;7.33
15709;BMP180;7954;51.914;8.420;2023-04-03T05:04:12;101896.28;;;7.27
15709;BMP180;7954;51.914;8.420;2023-04-03T05:06:40;101903.22;;;7.24
15709;BMP180;7954;51.914;8.420;2023-04-03T05:09:09;101895.38;;;7.27
15709;BMP180;7954;51.914;8.420;2023-04-03T05:11:38;101904.47;;;7.26
15709;BMP180;7954;51.914;8.420;2023-04-03T05:14:06;101907.88;;;7.31
15709;BMP180;7954;51.914;8.420;2023-04-03T05:16:35;101905.09;;;7.29
15709;BMP180;7954;51.914;8.420;2023-04-03T05:19:02;101910.72;;;7.32
15709;BMP180;7954;51.914;8.420;2023-04-03T05:21:31;101908.84;;;7.31
15709;BMP180;7954;51.914;8.420;2023-04-03T05:24:00;101907.56;;;7.33
15709;BMP180;7954;51.914;8.420;2023-04-03T05:26:29;101912.59;;;7.33
15709;BMP180;7954;51.914;8.420;2023-04-03T05:28:59;101915.44;;;7.31
15709;BMP180;7954;51.914;8.420;2023-04-03T05:31:27;101914.81;;;7.32
15709;BMP180;7954;51.914;8.420;2023-04-03T05:33:57;101917.25;;;7.40
15709;BMP180;7954;51.914;8.420;2023-04-03T05:36:26;101910.69;;;7.40
15709;BMP180;7954;51.914;8.420;2023-04-03T05:38:54;101915.00;;;7.53
15709;BMP180;7954;51.914;8.420;2023-04-03T05:41:23;101919.41;;;7.50
15709;BMP180;7954;51.914;8.420;2023-04-03T05:43:52;101914.38;;;7.54
15709;BMP180;7954;51.914;8.420;2023-04-03T05:46:21;101922.50;;;7.57
15709;BMP180;7954;51.914;8.420;2023-04-03T05:48:49;101926.25;;;7.63
15709;BMP180;7954;51.914;8.420;2023-04-03T05:51:19;101935.00;;;7.69
15709;BMP180;7954;51.914;8.420;2023-04-03T05:53:52;101923.63;;;7.79
15709;BMP180;7954;51.914;8.420;2023-04-03T05:56:23;101932.69;;;7.86
15709;BMP180;7954;51.914;8.420;2023-04-03T05:58:51;101933.34;;;7.81
15709;BMP180;7954;51.914;8.420;2023-04-03T06:01:19;101920.41;;;7.92
15709;BMP180;7954;51.914;8.420;2023-04-03T06:03:48;101921.97;;;7.91
15709;BMP180;7954;51.914;8.420;2023-04-03T06:06:16;101931.06;;;7.95
15709;BMP180;7954;51.914;8.420;2023-04-03T06:08:45;101933.50;;;8.07
15709;BMP180;7954;51.914;8.420;2023-04-03T06:11:14;101939.78;;;8.05
15709;BMP180;7954;51.914;8.420;2023-04-03T06:13:42;101942.25;;;8.09
15709;BMP180;7954;51.914;8.420;2023-04-03T06:16:12;101946.59;;;8.26
15709;BMP180;7954;51.914;8.420;2023-04-03T06:18:41;101948.84;;;8.53
15709;BMP180;7954;51.914;8.420;2023-04-03T06:21:10;101943.06;;;8.66
15709;BMP180;7954;51.914;8.420;2023-04-03T06:23:40;101946.34;;;8.83
15709;BMP180;7954;51.914;8.420;2023-04-03T06:26:08;101943.44;;;8.89
15709;BMP180;7954;51.914;8.420;2023-04-03T06:28:36;101947.31;;;8.79
15709;BMP180;7954;51.914;8.420;2023-04-03T06:31:04;101939.38;;;8.86
15709;BMP180;7954;51.914;8.420;2023-04-03T06:33:31;101944.06;;;8.88
15709;BMP180;7954;51.914;8.420;2023-04-03T06:35:59;101945.94;;;8.89
15709;BMP180;7954;51.914;8.420;2023-04-03T06:40:38;101939.72;;;8.83
15709;BMP180;7954;51.914;8.420;2023-04-03T06:43:06;101947.53;;;8.89
15709;BMP180;7954;51.914;8.420;2023-04-03T06:45:35;101937.13;;;8.87
15709;BMP180;7954;51.914;8.420;2023-04-03T06:48:03;101939.31;;;8.94
15709;BMP180;7954;51.914;8.420;2023-04-03T06:50:33;101939.59;;;8.95
15709;BMP180;7954;51.914;8.420;2023-04-03T06:53:01;101946.19;;;8.94
15709;BMP180;7954;51.914;8.420;2023-04-03T06:55:34;101944.81;;;9.04
15709;BMP180;7954;51.914;8.420;2023-04-03T06:58:04;101940.28;;;9.15
15709;BMP180;7954;51.914;8.420;2023-04-03T07:00:34;101939.84;;;9.26
15709;BMP180;7954;51.914;8.420;2023-04-03T07:03:02;101956.81;;;9.31
15709;BMP180;7954;51.914;8.420;2023-04-03T07:05:30;101954.97;;;9.26
15709;BMP180;7954;51.914;8.420;2023-04-03T07:07:58;101959.78;;;9.42
15709;BMP180;7954;51.914;8.420;2023-04-03T07:10:27;101961.25;;;9.53
15709;BMP180;7954;51.914;8.420;2023-04-03T07:12:54;101970.66;;;9.54
15709;BMP180;7954;51.914;8.420;2023-04-03T07:15:24;101964.47;;;9.69
15709;BMP180;7954;51.914;8.420;2023-04-03T07:17:52;101978.19;;;9.79
15709;BMP180;7954;51.914;8.420;2023-04-03T07:20:20;101969.22;;;9.89
15709;BMP180;7954;51.914;8.420;2023-04-03T07:22:48;101967.84;;;9.99
15709;BMP180;7954;51.914;8.420;2023-04-03T07:25:17;101971.47;;;10.09
15709;BMP180;7954;51.914;8.420;2023-04-03T07:27:45;101974.94;;;10.10
15709;BMP180;7954;51.914;8.420;2023-04-03T07:30:14;101974.47;;;10.20
15709;BMP180;7954;51.914;8.420;2023-04-03T07:32:43;101983.72;;;10.33
15709;BMP180;7954;51.914;8.420;2023-04-03T07:35:12;101987.97;;;10.42
15709;BMP180;7954;51.914;8.420;2023-04-03T07:37:40;101990.13;;;10.44
15709;BMP180;7954;51.914;8.420;2023-04-03T07:40:11;101992.75;;;10.58
15709;BMP180;7954;51.914;8.420;2023-04-03T07:42:39;101986.34;;;10.64
15709;BMP180;7954;51.914;8.420;2023-04-03T07:45:08;101990.59;;;10.73
15709;BMP180;7954;51.914;8.420;2023-04-03T07:47:36;101982.19;;;10.86
15709;BMP180;7954;51.914;8.420;2023-04-03T07:50:07;101983.31;;;10.91
15709;BMP180;7954;51.914;8.420;2023-04-03T07:52:35;101977.16;;;10.99
15709;BMP180;7954;51.914;8.420;2023-04-03T07:55:04;101982.06;;;11.07
15709;BMP180;7954;51.914;8.420;2023-04-03T07:57:32;101983.88;;;11.12
15709;BMP180;7954;51.914;8.420;2023-04-03T08:00:00;101976.41;;;11.21
15709;BMP180;7954;51.914;8.420;2023-04-03T08:02:28;101987.66;;;11.27
15709;BMP180;7954;51.914;8.420;2023-04-03T08:04:58;101978.69;;;11.33
15709;BMP180;7954;51.914;8.420;2023-04-03T08:07:28;101978.72;;;11.47
15709;BMP180;7954;51.914;8.420;2023-04-03T08:09:55;101979.91;;;11.53
15709;BMP180;7954;51.914;8.420;2023-04-03T08:12:23;101985.81;;;11.57
15709;BMP180;7954;51.914;8.420;2023-04-03T08:14:51;101985.72;;;11.61
15709;BMP180;7954;51.914;8.420;2023-04-03T08:17:19;101974.19;;;11.67
15709;BMP180;7954;51.914;8.420;2023-04-03T08:19:47;101974.31;;;11.76
15709;BMP180;7954;51.914;8.420;2023-04-03T08:22:14;101970.03;;;11.85
15709;BMP180;7954;51.914;8.420;2023-04-03T08:24:44;101966.00;;;11.95
15709;BMP180;7954;51.914;8.420;2023-04-03T08:27:24;101971.72;;;12.07
15709;BMP180;7954;51.914;8.420;2023-04-03T08:29:54;101958.84;;;12.15
15709;BMP180;7954;51.914;8.420;2023-04-03T08:32:23;101961.00;;;12.18
15709;BMP180;7954;51.914;8.420;2023-04-03T08:34:53;101970.53;;;12.28
15709;BMP180;7954;51.914;8.420;2023-04-03T08:37:21;101972.41;;;12.29
15709;BMP180;7954;51.914;8.420;2023-04-03T08:39:50;101977.97;;;12.36
15709;BMP180;7954;51.914;8.420;2023-04-03T08:42:34;101964.53;;;12.41
15709;BMP180;7954;51.914;8.420;2023-04-03T08:45:09;101963.78;;;12.46
15709;BMP180;7954;51.914;8.420;2023-04-03T08:47:43;101960.25;;;12.59
15709;BMP180;7954;51.914;8.420;2023-04-03T08:50:15;101964.75;;;12.69
15709;BMP180;7954;51.914;8.420;2023-04-03T08:52:45;101967.19;;;12.73
15709;BMP180;7954;51.914;8.420;2023-04-03T08:55:22;101968.44;;;12.84
15709;BMP180;7954;51.914;8.420;2023-04-03T08:57:58;101962.38;;;12.88
15709;BMP180;7954;51.914;8.420;2023-04-03T09:00:30;101959.59;;;12.96
15709;BMP180;7954;51.914;8.420;2023-04-03T09:02:59;101959.72;;;12.92
15709;BMP180;7954;51.914;8.420;2023-04-03T09:05:34;101955.31;;;12.91
15709;BMP180;7954;51.914;8.420;2023-04-03T09:08:14;101967.00;;;13.04
15709;BMP180;7954;51.914;8.420;2023-04-03T09:10:45;101951.78;;;13.04
15709;BMP180;7954;51.914;8.420;2023-04-03T09:13:22;101949.38;;;13.00
15709;BMP180;7954;51.914;8.420;2023-04-03T09:15:52;101958.75;;;13.05
15709;BMP180;7954;51.914;8.420;2023-04-03T09:18:25;101964.13;;;13.16
15709;BMP180;7954;51.914;8.420;2023-04-03T09:21:01;101959.94;;;13.30
15709;BMP180;7954;51.914;8.420;2023-04-03T09:23:36;101962.09;;;13.42
15709;BMP180;7954;51.914;8.420;2023-04-03T09:26:11;101952.38;;;13.48
15709;BMP180;7954;51.914;8.420;2023-04-03T09:28:41;101957.78;;;13.59
15709;BMP180;7954;51.914;8.420;2023-04-03T09:31:20;101951.34;;;13.61
15709;BMP180;7954;51.914;8.420;2023-04-03T09:33:50;101953.09;;;13.66
15709;BMP180;7954;51.914;8.420;2023-04-03T09:36:48;101960.19;;;13.73
15709;BMP180;7954;51.914;8.420;2023-04-03T09:39:20;101949.00;;;13.86
15709;BMP180;7954;51.914;8.420;2023-04-03T09:41:58;101956.63;;;13.95
15709;BMP180;7954;51.914;8.420;2023-04-03T09:44:29;101942.88;;;13.99
15709;BMP180;7954;51.914;8.420;2023-04-03T09:46:58;101940.25;;;14.12
15709;BMP180;7954;51.914;8.420;2023-04-03T09:49:26;101950.03;;;14.24
15709;BMP180;7954;51.914;8.420;2023-04-03T09:51:55;101938.25;;;14.34
15709;BMP180;7954;51.914;8.420;2023-04-03T09:54:40;101946.13;;;14.35
15709;BMP180;7954;51.914;8.420;2023-04-03T09:57:12;101945.47;;;14.36
15709;BMP180;7954;51.914;8.420;2023-04-03T09:59:46;101935.56;;;14.28
15709;BMP180;7954;51.914;8.420;2023-04-03T10:02:23;101933.31;;;14.20
15709;BMP180;7954;51.914;8.420;2023-04-03T10:04:55;101941.72;;;14.15
15709;BMP180;7954;51.914;8.420;2023-04-03T10:07:37;101944.66;;;14.22
15709;BMP180;7954;51.914;8.420;2023-04-03T10:10:20;101937.97;;;14.32
15709;BMP180;7954;51.914;8.420;2023-04-03T10:13:03;101931.00;;;14.41
15709;BMP180;7954;51.914;8.420;2023-04-03T10:15:36;101936.75;;;14.49
15709;BMP180;7954;51.914;8.420;2023-04-03T10:18:14;101924.03;;;14.59
15709;BMP180;7954;51.914;8.420;2023-04-03T10:20:51;101930.72;;;14.68
15709;BMP180;7954;51.914;8.420;2023-04-03T10:23:23;101926.53;;;14.68
15709;BMP180;7954;51.914;8.420;2023-04-03T10:26:01;101913.28;;;14.75
15709;BMP180;7954;51.914;8.420;2023-04-03T10:28:40;101928.56;;;14.65
15709;BMP180;7954;51.914;8.420;2023-04-03T10:31:15;101933.09;;;14.72
15709;BMP180;7954;51.914;8.420;2023-04-03T10:33:54;101918.25;;;14.60
15709;BMP180;7954;51.914;8.420;2023-04-03T10:36:33;101911.53;;;14.70
15709;BMP180;7954;51.914;8.420;2023-04-03T10:39:09;101908.34;;;14.71
15709;BMP180;7954;51.914;8.420;2023-04-03T10:41:49;101906.88;;;14.77
15709;BMP180;7954;51.914;8.420;2023-04-03T10:44:46;101908.50;;;15.10
15709;BMP180;7954;51.914;8.420;2023-04-03T10:47:20;101905.03;;;15.43
15709;BMP180;7954;51.914;8.420;2023-04-03T10:49:56;101893.59;;;15.50
15709;BMP180;7954;51.914;8.420;2023-04-03T10:52:32;101902.69;;;15.54
15709;BMP180;7954;51.914;8.420;2023-04-03T10:55:16;101899.47;;;15.70
15709;BMP180;7954;51.914;8.420;2023-04-03T10:57:53;101895.81;;;15.98
15709;BMP180;7954;51.914;8.420;2023-04-03T11:00:28;101905.78;;;16.11
15709;BMP180;7954;51.914;8.420;2023-04-03T11:03:00;101884.59;;;16.21
15709;BMP180;7954;51.914;8.420;2023-04-03T11:05:31;101879.72;;;16.32
15709;BMP180;7954;51.914;8.420;2023-04-03T11:08:05;101875.28;;;16.31
15709;BMP180;7954;51.914;8.420;2023-04-03T11:10:41;101878.72;;;16.02
15709;BMP180;7954;51.914;8.420;2023-04-03T11:13:13;101898.16;;;15.72
15709;BMP180;7954;51.914;8.420;2023-04-03T11:15:44;101894.53;;;15.51
15709;BMP180;7954;51.914;8.420;2023-04-03T11:18:16;101898.47;;;15.40
15709;BMP180;7954;51.914;8.420;2023-04-03T11:20:53;101898.63;;;15.60
15709;BMP180;7954;51.914;8.420;2023-04-03T11:23:25;101882.69;;;15.76
15709;BMP180;7954;51.914;8.420;2023-04-03T11:26:11;101874.34;;;16.01
15709;BMP180;7954;51.914;8.420;2023-04-03T11:28:39;101871.69;;;16.25
15709;BMP180;7954;51.914;8.420;2023-04-03T11:31:19;101861.91;;;16.53
15709;BMP180;7954;51.914;8.420;2023-04-03T11:33:55;101857.13;;;16.95
15709;BMP180;7954;51.914;8.420;2023-04-03T11:36:29;101860.56;;;17.10
15709;BMP180;7954;51.914;8.420;2023-04-03T11:39:09;101845.72;;;17.54
15709;BMP180;7954;51.914;8.420;2023-04-03T11:41:41;101843.88;;;17.84
15709;BMP180;7954;51.914;8.420;2023-04-03T11:44:29;101839.84;;;18.01
15709;BMP180;7954;51.914;8.420;2023-04-03T11:47:01;101833.97;;;17.91
15709;BMP180;7954;51.914;8.420;2023-04-03T11:49:55;101848.66;;;17.72
15709;BMP180;7954;51.914;8.420;2023-04-03T11:52:59;101843.50;;;17.40
15709;BMP180;7954;51.914;8.420;2023-04-03T11:55:52;101843.31;;;17.24
15709;BMP180;7954;51.914;8.420;2023-04-03T11:58:23;101844.50;;;17.26
15709;BMP180;7954;51.914;8.420;2023-04-03T12:00:55;101846.63;;;17.29
15709;BMP180;7954;51.914;8.420;2023-04-03T12:10:02;101815.63;;;17.99
15709;BMP180;7954;51.914;8.420;2023-04-03T12:12:33;101807.72;;;18.29
15709;BMP180;7954;51.914;8.420;2023-04-03T12:15:20;101818.97;;;18.40
15709;BMP180;7954;51.914;8.420;2023-04-03T12:17:50;101819.44;;;18.38
15709;BMP180;7954;51.914;8.420;2023-04-03T12:20:46;101816.75;;;18.21
15709;BMP180;7954;51.914;8.420;2023-04-03T12:23:27;101814.38;;;18.17
15709;BMP180;7954;51.914;8.420;2023-04-03T12:26:18;101804.03;;;18.01
15709;BMP180;7954;51.914;8.420;2023-04-03T12:28:49;101801.50;;;18.01
15709;BMP180;7954;51.914;8.420;2023-04-03T12:31:19;101807.38;;;18.11
15709;BMP180;7954;51.914;8.420;2023-04-03T12:34:13;101810.56;;;18.30
15709;BMP180;7954;51.914;8.420;2023-04-03T12:36:50;101808.91;;;18.31
15709;BMP180;7954;51.914;8.420;2023-04-03T12:39:42;101793.19;;;18.44
15709;BMP180;7954;51.914;8.420;2023-04-03T12:42:24;101785.84;;;18.68
15709;BMP180;7954;51.914;8.420;2023-04-03T12:45:02;101788.66;;;18.85
15709;BMP180;7954;51.914;8.420;2023-04-03T12:47:35;101786.44;;;19.14
15709;BMP180;7954;51.914;8.420;2023-04-03T12:50:17;101786.34;;;18.81
15709;BMP180;7954;51.914;8.420;2023-04-03T12:52:51;101788.75;;;18.49
15709;BMP180;7954;51.914;8.420;2023-04-03T12:55:21;101815.63;;;18.78
15709;BMP180;7954;51.914;8.420;2023-04-03T12:57:50;101802.72;;;20.18
15709;BMP180;7954;51.914;8.420;2023-04-03T13:00:20;101798.28;;;20.90
15709;BMP180;7954;51.914;8.420;2023-04-03T13:02:49;101767.50;;;23.12
15709;BMP180;7954;51.914;8.420;2023-04-03T13:05:19;101724.69;;;24.24
15709;BMP180;7954;51.914;8.420;2023-04-03T13:07:49;101752.72;;;25.55
15709;BMP180;7954;51.914;8.420;2023-04-03T13:10:20;101729.78;;;27.12
15709;BMP180;7954;51.914;8.420;2023-04-03T13:12:50;101720.94;;;28.23
15709;BMP180;7954;51.914;8.420;2023-04-03T13:15:20;101706.06;;;29.01
15709;BMP180;7954;51.914;8.420;2023-04-03T13:17:51;101704.50;;;29.70
15709;BMP180;7954;51.914;8.420;2023-04-03T13:20:23;101706.28;;;30.70
15709;BMP180;7954;51.914;8.420;2023-04-03T13:22:56;101698.63;;;31.20
15709;BMP180;7954;51.914;8.420;2023-04-03T13:25:30;101699.69;;;31.94
15709;BMP180;7954;51.914;8.420;2023-04-03T13:27:59;101693.13;;;32.23
15709;BMP180;7954;51.914;8.420;2023-04-03T13:30:39;101691.09;;;32.97
15709;BMP180;7954;51.914;8.420;2023-04-03T13:33:20;101692.19;;;33.42
15709;BMP180;7954;51.914;8.420;2023-04-03T13:35:54;101683.69;;;33.80
15709;BMP180;7954;51.914;8.420;2023-04-03T13:38:25;101686.84;;;34.13
15709;BMP180;7954;51.914;8.420;2023-04-03T13:40:57;101683.34;;;33.59
15709;BMP180;7954;51.914;8.420;2023-04-03T13:43:30;101652.19;;;32.07
15709;BMP180;7954;51.914;8.420;2023-04-03T13:46:20;101701.88;;;31.49
15709;BMP180;7954;51.914;8.420;2023-04-03T13:48:50;101679.13;;;33.34
15709;BMP180;7954;51.914;8.420;2023-04-03T13:51:21;101681.22;;;34.00
15709;BMP180;7954;51.914;8.420;2023-04-03T13:53:53;101670.03;;;34.48
15709;BMP180;7954;51.914;8.420;2023-04-03T13:56:27;101663.63;;;35.29
15709;BMP180;7954;51.914;8.420;2023-04-03T13:59:03;101677.31;;;34.32
15709;BMP180;7954;51.914;8.420;2023-04-03T14:01:40;101658.59;;;31.93
15709;BMP180;7954;51.914;8.420;2023-04-03T14:04:15;101648.56;;;29.97
15709;BMP180;7954;51.914;8.420;2023-04-03T14:06:45;101655.16;;;28.67
15709;BMP180;7954;51.914;8.420;2023-04-03T14:09:14;101668.09;;;28.01
15709;BMP180;7954;51.914;8.420;2023-04-03T14:11:44;101701.53;;;29.07
15709;BMP180;7954;51.914;8.420;2023-04-03T14:14:16;101675.53;;;31.80
15709;BMP180;7954;51.914;8.420;2023-04-03T14:16:47;101636.84;;;33.13
15709;BMP180;7954;51.914;8.420;2023-04-03T14:19:20;101612.28;;;33.21
15709;BMP180;7954;51.914;8.420;2023-04-03T14:21:51;101635.72;;;30.38
15709;BMP180;7954;51.914;8.420;2023-04-03T14:24:19;101639.78;;;28.32
15709;BMP180;7954;51.914;8.420;2023-04-03T14:26:51;101660.59;;;26.78
15709;BMP180;7954;51.914;8.420;2023-04-03T14:29:20;101669.06;;;26.02
15709;BMP180;7954;51.914;8.420;2023-04-03T14:31:49;101639.59;;;27.88
15709;BMP180;7954;51.914;8.420;2023-04-03T14:34:25;101648.28;;;27.88
15709;BMP180;7954;51.914;8.420;2023-04-03T14:36:53;101652.63;;;27.46
15709;BMP180;7954;51.914;8.420;2023-04-03T14:39:22;101676.56;;;28.28
15709;BMP180;7954;51.914;8.420;2023-04-03T14:41:51;101627.75;;;27.76
15709;BMP180;7954;51.914;8.420;2023-04-03T14:44:19;101616.38;;;27.82
15709;BMP180;7954;51.914;8.420;2023-04-03T14:46:47;101614.00;;;28.27
15709;BMP180;7954;51.914;8.420;2023-04-03T14:49:25;101627.81;;;26.58
15709;BMP180;7954;51.914;8.420;2023-04-03T14:51:54;101657.06;;;27.75